sensor_id;sensor_type;location;lat;lon;timestamp;pressure;altitude;pressure_sealevel;temperature;humidity
54329;BME280;40710;51.120;13.136;2023-01-28T00:00:43;100229.53;;;6.18;60.76
54329;BME280;40710;51.120;13.136;2023-01-28T00:03:07;100228.19;;;6.00;60.37
54329;BME280;40710;51.120;13.136;2023-01-28T00:05:32;100226.81;;;6.24;60.38
54329;BME280;40710;51.120;13.136;2023-01-28T00:07:56;100233.53;;;5.93;61.04
54329;BME280;40710;51.120;13.136;2023-01-28T00:10:21;100227.38;;;6.39;60.14
54329;BME280;40710;51.120;13.136;2023-01-28T00:12:45;100222.16;;;6.39;60.02
54329;BME280;40710;51.120;13.136;2023-01-28T00:15:10;100228.09;;;6.46;59.41
54329;BME280;40710;51.120;13.136;2023-01-28T00:17:35;100227.84;;;6.17;60.36
54329;BME280;40710;51.120;13.136;2023-01-28T00:20:00;100216.94;;;6.39;60.18
54329;BME280;40710;51.120;13.136;2023-01-28T00:22:25;100217.72;;;6.42;59.52
54329;BME280;40710;51.120;13.136;2023-01-28T00:24:49;100215.44;;;6.66;58.97
54329;BME280;40710;51.120;13.136;2023-01-28T00:27:14;100214.88;;;6.91;58.28
54329;BME280;40710;51.120;13.136;2023-01-28T00:29:38;100222.00;;;6.84;58.94
54329;BME280;40710;51.120;13.136;2023-01-28T00:32:03;100223.97;;;6.35;60.17
54329;BME280;40710;51.120;13.136;2023-01-28T00:34:27;100219.00;;;6.99;58.85
54329;BME280;40710;51.120;13.136;2023-01-28T00:36:52;100223.94;;;6.74;59.23
54329;BME280;40710;51.120;13.136;2023-01-28T00:39:23;100221.19;;;6.82;59.26
54329;BME280;40710;51.120;13.136;2023-01-28T00:41:49;100222.53;;;6.97;59.75
54329;BME280;40710;51.120;13.136;2023-01-28T00:44:13;100225.31;;;7.25;58.54
54329;BME280;40710;51.120;13.136;2023-01-28T00:46:38;100217.41;;;7.61;57.83
54329;BME280;40710;51.120;13.136;2023-01-28T00:49:02;100219.47;;;7.48;57.56
54329;BME280;40710;51.120;13.136;2023-01-28T00:51:27;100241.09;;;6.06;60.15
54329;BME280;40710;51.120;13.136;2023-01-28T00:53:51;100243.28;;;5.83;62.30
54329;BME280;40710;51.120;13.136;2023-01-28T00:56:17;100247.66;;;5.82;63.23
54329;BME280;40710;51.120;13.136;2023-01-28T00:58:43;100238.31;;;5.69;63.22
54329;BME280;40710;51.120;13.136;2023-01-28T01:01:22;100253.72;;;5.35;64.28
54329;BME280;40710;51.120;13.136;2023-01-28T01:03:48;100248.16;;;5.55;64.25
54329;BME280;40710;51.120;13.136;2023-01-28T01:06:20;100234.97;;;5.62;63.27
54329;BME280;40710;51.120;13.136;2023-01-28T01:08:45;100248.66;;;5.25;64.37
54329;BME280;40710;51.120;13.136;2023-01-28T01:11:13;100252.09;;;5.29;64.99
54329;BME280;40710;51.120;13.136;2023-01-28T01:13:38;100247.47;;;5.45;64.20
54329;BME280;40710;51.120;13.136;2023-01-28T01:16:12;100246.41;;;5.55;63.70
54329;BME280;40710;51.120;13.136;2023-01-28T01:18:38;100247.00;;;5.23;64.68
54329;BME280;40710;51.120;13.136;2023-01-28T01:21:08;100232.22;;;6.15;60.67
54329;BME280;40710;51.120;13.136;2023-01-28T01:23:32;100253.69;;;5.36;63.89
54329;BME280;40710;51.120;13.136;2023-01-28T01:25:57;100254.59;;;5.35;64.94
54329;BME280;40710;51.120;13.136;2023-01-28T01:28:22;100249.31;;;5.85;63.72
54329;BME280;40710;51.120;13.136;2023-01-28T01:30:47;100255.75;;;5.67;62.45
54329;BME280;40710;51.120;13.136;2023-01-28T01:33:12;100255.59;;;5.75;62.18
54329;BME280;40710;51.120;13.136;2023-01-28T01:35:37;100254.66;;;5.80;61.81
54329;BME280;40710;51.120;13.136;2023-01-28T01:38:01;100244.81;;;5.46;62.49
54329;BME280;40710;51.120;13.136;2023-01-28T01:40:27;100252.91;;;5.79;62.40
54329;BME280;40710;51.120;13.136;2023-01-28T01:42:52;100246.72;;;5.38;62.75
54329;BME280;40710;51.120;13.136;2023-01-28T01:45:17;100245.50;;;5.58;62.52
54329;BME280;40710;51.120;13.136;2023-01-28T01:50:35;100248.84;;;5.64;62.56
54329;BME280;40710;51.120;13.136;2023-01-28T01:53:09;100243.69;;;5.61;61.92
54329;BME280;40710;51.120;13.136;2023-01-28T01:55:39;100252.66;;;5.45;62.46
54329;BME280;40710;51.120;13.136;2023-01-28T01:58:09;100243.28;;;5.83;62.52
54329;BME280;40710;51.120;13.136;2023-01-28T02:00:35;100246.94;;;5.73;61.96
54329;BME280;40710;51.120;13.136;2023-01-28T02:03:00;100256.13;;;4.94;64.44
54329;BME280;40710;51.120;13.136;2023-01-28T02:05:24;100254.28;;;5.52;63.45
54329;BME280;40710;51.120;13.136;2023-01-28T02:07:53;100247.94;;;5.67;62.48
54329;BME280;40710;51.120;13.136;2023-01-28T02:10:19;100248.69;;;5.74;62.27
54329;BME280;40710;51.120;13.136;2023-01-28T02:12:52;100262.72;;;5.15;63.48
54329;BME280;40710;51.120;13.136;2023-01-28T02:15:21;100266.94;;;5.22;63.61
54329;BME280;40710;51.120;13.136;2023-01-28T02:17:48;100253.03;;;5.73;62.48
54329;BME280;40710;51.120;13.136;2023-01-28T02:20:20;100259.63;;;5.44;62.36
54329;BME280;40710;51.120;13.136;2023-01-28T02:26:09;100262.09;;;5.52;62.41
54329;BME280;40710;51.120;13.136;2023-01-28T02:28:51;100260.91;;;5.20;63.25
54329;BME280;40710;51.120;13.136;2023-01-28T02:31:41;100262.47;;;5.32;63.02
54329;BME280;40710;51.120;13.136;2023-01-28T02:34:13;100264.75;;;5.51;62.41
54329;BME280;40710;51.120;13.136;2023-01-28T02:36:48;100270.22;;;5.37;62.88
54329;BME280;40710;51.120;13.136;2023-01-28T02:39:22;100270.28;;;5.32;62.98
54329;BME280;40710;51.120;13.136;2023-01-28T02:41:55;100267.25;;;5.57;61.64
54329;BME280;40710;51.120;13.136;2023-01-28T02:44:21;100261.22;;;5.53;61.19
54329;BME280;40710;51.120;13.136;2023-01-28T02:46:45;100271.56;;;5.59;61.01
54329;BME280;40710;51.120;13.136;2023-01-28T02:49:38;100263.97;;;5.45;61.47
54329;BME280;40710;51.120;13.136;2023-01-28T02:57:37;100280.88;;;5.23;63.20
54329;BME280;40710;51.120;13.136;2023-01-28T03:03:15;100290.66;;;4.48;63.61
54329;BME280;40710;51.120;13.136;2023-01-28T03:05:48;100286.63;;;4.87;63.21
54329;BME280;40710;51.120;13.136;2023-01-28T03:08:38;100287.19;;;5.06;62.72
54329;BME280;40710;51.120;13.136;2023-01-28T03:11:28;100299.31;;;4.48;63.77
54329;BME280;40710;51.120;13.136;2023-01-28T03:14:15;100293.22;;;4.51;64.04
54329;BME280;40710;51.120;13.136;2023-01-28T03:17:02;100296.66;;;4.53;62.82
54329;BME280;40710;51.120;13.136;2023-01-28T03:19:47;100280.38;;;6.00;60.92
54329;BME280;40710;51.120;13.136;2023-01-28T03:22:36;100285.84;;;4.81;61.95
54329;BME280;40710;51.120;13.136;2023-01-28T03:25:24;100289.66;;;5.16;61.10
54329;BME280;40710;51.120;13.136;2023-01-28T03:28:15;100294.03;;;5.14;61.71
54329;BME280;40710;51.120;13.136;2023-01-28T03:31:17;100298.69;;;4.95;61.46
54329;BME280;40710;51.120;13.136;2023-01-28T03:34:04;100300.88;;;4.62;62.32
54329;BME280;40710;51.120;13.136;2023-01-28T03:36:48;100305.56;;;4.37;62.64
54329;BME280;40710;51.120;13.136;2023-01-28T03:39:16;100304.69;;;4.34;62.69
54329;BME280;40710;51.120;13.136;2023-01-28T03:41:41;100291.97;;;4.78;61.52
54329;BME280;40710;51.120;13.136;2023-01-28T03:44:06;100294.59;;;4.75;61.87
54329;BME280;40710;51.120;13.136;2023-01-28T03:46:49;100298.78;;;4.85;61.25
54329;BME280;40710;51.120;13.136;2023-01-28T03:49:17;100299.78;;;4.77;60.94
54329;BME280;40710;51.120;13.136;2023-01-28T03:51:42;100301.47;;;4.82;61.43
54329;BME280;40710;51.120;13.136;2023-01-28T03:54:07;100298.09;;;4.76;60.19
54329;BME280;40710;51.120;13.136;2023-01-28T03:56:31;100307.84;;;4.60;60.60
54329;BME280;40710;51.120;13.136;2023-01-28T03:59:00;100311.19;;;4.68;60.00
54329;BME280;40710;51.120;13.136;2023-01-28T04:01:25;100307.94;;;5.13;59.49
54329;BME280;40710;51.120;13.136;2023-01-28T04:03:49;100312.25;;;4.56;60.34
54329;BME280;40710;51.120;13.136;2023-01-28T04:06:14;100315.16;;;4.95;59.32
54329;BME280;40710;51.120;13.136;2023-01-28T04:08:39;100315.94;;;5.02;59.81
54329;BME280;40710;51.120;13.136;2023-01-28T04:11:03;100308.97;;;5.02;58.19
54329;BME280;40710;51.120;13.136;2023-01-28T04:13:43;100322.16;;;4.91;58.72
54329;BME280;40710;51.120;13.136;2023-01-28T04:16:07;100316.94;;;4.93;58.40
54329;BME280;40710;51.120;13.136;2023-01-28T04:18:32;100317.28;;;4.68;58.82
54329;BME280;40710;51.120;13.136;2023-01-28T04:20:56;100320.75;;;4.67;58.74
54329;BME280;40710;51.120;13.136;2023-01-28T04:23:21;100328.75;;;4.52;59.14
54329;BME280;40710;51.120;13.136;2023-01-28T04:25:49;100334.44;;;4.12;59.56
54329;BME280;40710;51.120;13.136;2023-01-28T04:28:13;100322.72;;;4.48;58.20
54329;BME280;40710;51.120;13.136;2023-01-28T04:30:38;100328.13;;;4.33;58.51
54329;BME280;40710;51.120;13.136;2023-01-28T04:33:02;100331.75;;;4.21;58.91
54329;BME280;40710;51.120;13.136;2023-01-28T04:35:27;100340.50;;;4.14;60.17
54329;BME280;40710;51.120;13.136;2023-01-28T04:37:51;100330.97;;;4.14;58.38
54329;BME280;40710;51.120;13.136;2023-01-28T04:40:16;100344.97;;;4.00;60.01
54329;BME280;40710;51.120;13.136;2023-01-28T04:42:40;100351.22;;;3.82;59.81
54329;BME280;40710;51.120;13.136;2023-01-28T04:45:05;100346.25;;;3.55;60.88
54329;BME280;40710;51.120;13.136;2023-01-28T04:47:30;100353.28;;;3.47;60.89
54329;BME280;40710;51.120;13.136;2023-01-28T04:49:55;100346.34;;;4.33;59.32
54329;BME280;40710;51.120;13.136;2023-01-28T04:52:19;100327.13;;;5.08;55.84
54329;BME280;40710;51.120;13.136;2023-01-28T04:54:44;100345.31;;;4.46;59.06
54329;BME280;40710;51.120;13.136;2023-01-28T04:57:08;100356.41;;;3.86;59.60
54329;BME280;40710;51.120;13.136;2023-01-28T04:59:33;100360.81;;;3.73;61.08
54329;BME280;40710;51.120;13.136;2023-01-28T05:01:58;100362.59;;;3.70;60.83
54329;BME280;40710;51.120;13.136;2023-01-28T05:04:22;100370.38;;;3.71;60.61
54329;BME280;40710;51.120;13.136;2023-01-28T05:06:47;100365.97;;;3.83;60.62
54329;BME280;40710;51.120;13.136;2023-01-28T05:09:11;100367.75;;;3.76;60.82
54329;BME280;40710;51.120;13.136;2023-01-28T05:11:36;100368.72;;;3.63;61.49
54329;BME280;40710;51.120;13.136;2023-01-28T05:14:00;100362.59;;;3.71;60.45
54329;BME280;40710;51.120;13.136;2023-01-28T05:16:25;100374.19;;;3.30;61.10
54329;BME280;40710;51.120;13.136;2023-01-28T05:18:50;100364.94;;;3.97;59.11
54329;BME280;40710;51.120;13.136;2023-01-28T05:21:14;100368.06;;;3.40;58.92
54329;BME280;40710;51.120;13.136;2023-01-28T05:23:39;100365.25;;;3.64;58.54
54329;BME280;40710;51.120;13.136;2023-01-28T05:26:04;100372.59;;;3.12;59.32
54329;BME280;40710;51.120;13.136;2023-01-28T05:28:28;100378.56;;;3.20;59.95
54329;BME280;40710;51.120;13.136;2023-01-28T05:30:53;100380.19;;;3.38;58.81
54329;BME280;40710;51.120;13.136;2023-01-28T05:33:18;100381.81;;;3.52;58.97
54329;BME280;40710;51.120;13.136;2023-01-28T05:35:43;100377.69;;;3.25;58.47
54329;BME280;40710;51.120;13.136;2023-01-28T05:38:07;100386.53;;;2.93;59.47
54329;BME280;40710;51.120;13.136;2023-01-28T05:40:32;100382.66;;;3.55;58.89
54329;BME280;40710;51.120;13.136;2023-01-28T05:42:56;100386.16;;;3.51;58.45
54329;BME280;40710;51.120;13.136;2023-01-28T05:45:21;100384.16;;;3.86;57.69
54329;BME280;40710;51.120;13.136;2023-01-28T05:47:45;100378.00;;;3.94;57.79
54329;BME280;40710;51.120;13.136;2023-01-28T05:50:12;100385.94;;;3.76;58.42
54329;BME280;40710;51.120;13.136;2023-01-28T05:52:37;100393.09;;;3.49;59.09
54329;BME280;40710;51.120;13.136;2023-01-28T05:55:01;100389.59;;;3.55;59.08
54329;BME280;40710;51.120;13.136;2023-01-28T05:57:26;100400.06;;;3.44;59.06
54329;BME280;40710;51.120;13.136;2023-01-28T05:59:50;100396.50;;;3.57;57.62
54329;BME280;40710;51.120;13.136;2023-01-28T06:02:15;100397.31;;;3.61;57.20
54329;BME280;40710;51.120;13.136;2023-01-28T06:04:39;100409.78;;;3.13;59.68
54329;BME280;40710;51.120;13.136;2023-01-28T06:07:04;100405.13;;;3.63;57.85
54329;BME280;40710;51.120;13.136;2023-01-28T06:09:28;100412.06;;;3.60;57.93
54329;BME280;40710;51.120;13.136;2023-01-28T06:11:53;100421.88;;;3.21;59.09
54329;BME280;40710;51.120;13.136;2023-01-28T06:14:18;100424.34;;;3.40;59.32
54329;BME280;40710;51.120;13.136;2023-01-28T06:16:42;100427.63;;;3.67;58.44
54329;BME280;40710;51.120;13.136;2023-01-28T06:19:07;100426.06;;;3.46;58.42
54329;BME280;40710;51.120;13.136;2023-01-28T06:21:32;100443.56;;;3.07;59.81
54329;BME280;40710;51.120;13.136;2023-01-28T06:23:56;100445.13;;;3.40;58.82
54329;BME280;40710;51.120;13.136;2023-01-28T06:26:21;100446.09;;;3.20;59.17
54329;BME280;40710;51.120;13.136;2023-01-28T06:28:45;100457.41;;;3.16;59.53
54329;BME280;40710;51.120;13.136;2023-01-28T06:31:10;100447.53;;;3.68;58.14
54329;BME280;40710;51.120;13.136;2023-01-28T06:33:35;100453.13;;;3.05;59.37
54329;BME280;40710;51.120;13.136;2023-01-28T06:36:04;100454.56;;;3.56;59.06
54329;BME280;40710;51.120;13.136;2023-01-28T06:38:30;100472.25;;;2.88;60.46
54329;BME280;40710;51.120;13.136;2023-01-28T06:40:54;100474.63;;;3.31;59.56
54329;BME280;40710;51.120;13.136;2023-01-28T06:43:19;100469.63;;;2.91;60.24
54329;BME280;40710;51.120;13.136;2023-01-28T06:45:43;100471.94;;;3.47;59.27
54329;BME280;40710;51.120;13.136;2023-01-28T06:48:08;100468.47;;;3.48;59.34
54329;BME280;40710;51.120;13.136;2023-01-28T06:50:32;100470.25;;;3.38;59.84
54329;BME280;40710;51.120;13.136;2023-01-28T06:52:57;100470.44;;;3.09;60.36
54329;BME280;40710;51.120;13.136;2023-01-28T06:55:22;100465.78;;;3.63;59.04
54329;BME280;40710;51.120;13.136;2023-01-28T06:57:46;100473.69;;;3.48;58.55
54329;BME280;40710;51.120;13.136;2023-01-28T07:00:12;100469.34;;;3.47;58.49
54329;BME280;40710;51.120;13.136;2023-01-28T07:02:38;100477.13;;;3.51;58.35
54329;BME280;40710;51.120;13.136;2023-01-28T07:05:04;100479.88;;;3.20;59.10
54329;BME280;40710;51.120;13.136;2023-01-28T07:07:29;100482.34;;;3.47;60.02
54329;BME280;40710;51.120;13.136;2023-01-28T07:09:54;100490.09;;;3.54;58.54
54329;BME280;40710;51.120;13.136;2023-01-28T07:12:18;100473.59;;;3.57;58.16
54329;BME280;40710;51.120;13.136;2023-01-28T07:14:43;100481.31;;;3.68;58.60
54329;BME280;40710;51.120;13.136;2023-01-28T07:17:07;100492.69;;;3.54;58.37
54329;BME280;40710;51.120;13.136;2023-01-28T07:19:32;100487.50;;;3.54;58.20
54329;BME280;40710;51.120;13.136;2023-01-28T07:21:56;100491.09;;;3.27;58.95
54329;BME280;40710;51.120;13.136;2023-01-28T07:24:24;100484.91;;;3.54;57.88
54329;BME280;40710;51.120;13.136;2023-01-28T07:26:48;100476.97;;;3.70;57.75
54329;BME280;40710;51.120;13.136;2023-01-28T07:29:13;100482.16;;;3.71;57.92
54329;BME280;40710;51.120;13.136;2023-01-28T07:31:37;100481.22;;;3.82;57.99
54329;BME280;40710;51.120;13.136;2023-01-28T07:34:02;100476.84;;;3.88;57.39
54329;BME280;40710;51.120;13.136;2023-01-28T07:36:26;100473.34;;;3.91;56.97
54329;BME280;40710;51.120;13.136;2023-01-28T07:38:51;100476.88;;;3.84;57.26
54329;BME280;40710;51.120;13.136;2023-01-28T07:41:15;100478.59;;;3.86;57.11
54329;BME280;40710;51.120;13.136;2023-01-28T07:43:40;100479.63;;;3.67;56.85
54329;BME280;40710;51.120;13.136;2023-01-28T07:46:04;100472.69;;;3.63;56.96
54329;BME280;40710;51.120;13.136;2023-01-28T07:48:29;100471.78;;;3.70;56.58
54329;BME280;40710;51.120;13.136;2023-01-28T07:50:57;100483.22;;;3.44;57.34
54329;BME280;40710;51.120;13.136;2023-01-28T07:53:22;100476.28;;;3.49;56.91
54329;BME280;40710;51.120;13.136;2023-01-28T07:55:46;100473.44;;;3.78;55.89
54329;BME280;40710;51.120;13.136;2023-01-28T07:58:11;100466.19;;;4.19;55.50
54329;BME280;40710;51.120;13.136;2023-01-28T08:00:36;100466.25;;;4.13;55.70
54329;BME280;40710;51.120;13.136;2023-01-28T08:03:08;100464.34;;;4.30;55.08
54329;BME280;40710;51.120;13.136;2023-01-28T08:05:43;100464.22;;;4.44;55.03
54329;BME280;40710;51.120;13.136;2023-01-28T08:08:09;100477.34;;;4.33;54.51
54329;BME280;40710;51.120;13.136;2023-01-28T08:10:34;100473.88;;;4.31;53.48
54329;BME280;40710;51.120;13.136;2023-01-28T08:12:58;100468.69;;;4.31;54.25
54329;BME280;40710;51.120;13.136;2023-01-28T08:15:24;100472.03;;;4.43;54.00
54329;BME280;40710;51.120;13.136;2023-01-28T08:17:49;100472.94;;;4.40;53.84
54329;BME280;40710;51.120;13.136;2023-01-28T08:20:14;100468.59;;;4.41;53.83
54329;BME280;40710;51.120;13.136;2023-01-28T08:22:39;100471.25;;;4.33;53.96
54329;BME280;40710;51.120;13.136;2023-01-28T08:25:04;100482.88;;;3.93;54.21
54329;BME280;40710;51.120;13.136;2023-01-28T08:27:28;100480.09;;;4.16;54.02
54329;BME280;40710;51.120;13.136;2023-01-28T08:29:53;100472.13;;;4.32;52.95
54329;BME280;40710;51.120;13.136;2023-01-28T08:32:17;100488.34;;;3.59;54.14
54329;BME280;40710;51.120;13.136;2023-01-28T08:34:42;100480.75;;;4.39;53.10
54329;BME280;40710;51.120;13.136;2023-01-28T08:37:06;100481.41;;;4.59;51.67
54329;BME280;40710;51.120;13.136;2023-01-28T08:39:31;100479.69;;;4.57;52.31
54329;BME280;40710;51.120;13.136;2023-01-28T08:41:55;100483.94;;;4.65;52.51
54329;BME280;40710;51.120;13.136;2023-01-28T08:44:20;100489.28;;;4.53;52.50
54329;BME280;40710;51.120;13.136;2023-01-28T08:46:44;100487.53;;;4.53;52.01
54329;BME280;40710;51.120;13.136;2023-01-28T08:49:09;100496.44;;;4.29;52.61
54329;BME280;40710;51.120;13.136;2023-01-28T08:51:33;100492.44;;;4.83;51.53
54329;BME280;40710;51.120;13.136;2023-01-28T08:53:58;100492.63;;;4.66;51.35
54329;BME280;40710;51.120;13.136;2023-01-28T08:56:23;100498.72;;;4.65;51.53
54329;BME280;40710;51.120;13.136;2023-01-28T08:58:48;100499.09;;;5.08;52.39
54329;BME280;40710;51.120;13.136;2023-01-28T09:01:12;100495.53;;;5.14;51.33
54329;BME280;40710;51.120;13.136;2023-01-28T09:03:37;100495.44;;;4.44;52.03
54329;BME280;40710;51.120;13.136;2023-01-28T09:06:03;100498.03;;;4.44;51.75
54329;BME280;40710;51.120;13.136;2023-01-28T09:08:28;100498.88;;;4.49;51.82
54329;BME280;40710;51.120;13.136;2023-01-28T09:10:59;100501.06;;;4.88;51.40
54329;BME280;40710;51.120;13.136;2023-01-28T09:13:24;100495.00;;;4.87;51.14
54329;BME280;40710;51.120;13.136;2023-01-28T09:15:48;100496.66;;;4.93;51.21
54329;BME280;40710;51.120;13.136;2023-01-28T09:18:14;100497.41;;;5.01;50.95
54329;BME280;40710;51.120;13.136;2023-01-28T09:20:39;100499.47;;;4.74;51.66
54329;BME280;40710;51.120;13.136;2023-01-28T09:23:05;100503.81;;;4.76;51.01
54329;BME280;40710;51.120;13.136;2023-01-28T09:25:29;100501.38;;;4.57;51.00
54329;BME280;40710;51.120;13.136;2023-01-28T09:27:54;100508.34;;;4.55;51.89
54329;BME280;40710;51.120;13.136;2023-01-28T09:30:19;100501.41;;;4.54;50.86
54329;BME280;40710;51.120;13.136;2023-01-28T09:32:43;100506.59;;;4.57;50.88
54329;BME280;40710;51.120;13.136;2023-01-28T09:35:09;100512.25;;;4.96;50.31
54329;BME280;40710;51.120;13.136;2023-01-28T09:37:33;100505.72;;;5.31;50.29
54329;BME280;40710;51.120;13.136;2023-01-28T09:39:58;100503.16;;;5.29;49.34
54329;BME280;40710;51.120;13.136;2023-01-28T09:42:26;100498.53;;;5.48;48.88
54329;BME280;40710;51.120;13.136;2023-01-28T09:45:08;100501.25;;;5.42;49.61
54329;BME280;40710;51.120;13.136;2023-01-28T09:47:42;100506.41;;;5.47;49.02
54329;BME280;40710;51.120;13.136;2023-01-28T09:50:15;100498.59;;;5.47;48.45
54329;BME280;40710;51.120;13.136;2023-01-28T09:52:41;100502.44;;;5.17;49.00
54329;BME280;40710;51.120;13.136;2023-01-28T09:55:16;100504.06;;;5.25;49.26
54329;BME280;40710;51.120;13.136;2023-01-28T09:57:51;100499.81;;;5.18;48.80
54329;BME280;40710;51.120;13.136;2023-01-28T10:00:22;100511.72;;;5.39;48.55
54329;BME280;40710;51.120;13.136;2023-01-28T10:09:00;100514.88;;;4.96;48.91
54329;BME280;40710;51.120;13.136;2023-01-28T10:14:44;100519.59;;;4.59;50.04
54329;BME280;40710;51.120;13.136;2023-01-28T10:17:38;100528.63;;;5.07;51.67
54329;BME280;40710;51.120;13.136;2023-01-28T10:22:41;100538.19;;;5.05;50.79
54329;BME280;40710;51.120;13.136;2023-01-28T10:25:18;100528.66;;;5.04;51.14
54329;BME280;40710;51.120;13.136;2023-01-28T10:27:45;100536.56;;;4.95;52.47
54329;BME280;40710;51.120;13.136;2023-01-28T10:35:17;100534.31;;;5.39;51.30
54329;BME280;40710;51.120;13.136;2023-01-28T10:37:42;100538.94;;;5.17;51.43
54329;BME280;40710;51.120;13.136;2023-01-28T10:40:17;100535.09;;;5.45;50.61
54329;BME280;40710;51.120;13.136;2023-01-28T10:42:43;100543.69;;;5.52;50.61
54329;BME280;40710;51.120;13.136;2023-01-28T10:48:29;100548.56;;;5.10;50.37
54329;BME280;40710;51.120;13.136;2023-01-28T10:50:57;100551.09;;;5.18;51.05
54329;BME280;40710;51.120;13.136;2023-01-28T10:53:39;100550.38;;;5.03;50.90
54329;BME280;40710;51.120;13.136;2023-01-28T10:56:07;100545.88;;;5.18;50.50
54329;BME280;40710;51.120;13.136;2023-01-28T10:58:47;100545.56;;;4.66;51.44
54329;BME280;40710;51.120;13.136;2023-01-28T11:01:13;100531.78;;;5.33;49.49
54329;BME280;40710;51.120;13.136;2023-01-28T11:03:52;100537.94;;;5.25;50.19
54329;BME280;40710;51.120;13.136;2023-01-28T11:06:24;100528.91;;;4.83;51.08
54329;BME280;40710;51.120;13.136;2023-01-28T11:08:49;100545.22;;;4.97;51.56
54329;BME280;40710;51.120;13.136;2023-01-28T11:11:14;100545.78;;;5.24;50.61
54329;BME280;40710;51.120;13.136;2023-01-28T11:13:48;100536.44;;;5.06;50.93
54329;BME280;40710;51.120;13.136;2023-01-28T11:16:16;100542.44;;;5.14;50.36
54329;BME280;40710;51.120;13.136;2023-01-28T11:19:02;100532.00;;;5.16;50.15
54329;BME280;40710;51.120;13.136;2023-01-28T11:21:31;100532.84;;;5.18;49.64
54329;BME280;40710;51.120;13.136;2023-01-28T11:24:00;100528.72;;;5.00;51.04
54329;BME280;40710;51.120;13.136;2023-01-28T11:26:29;100530.16;;;5.22;49.96
54329;BME280;40710;51.120;13.136;2023-01-28T11:28:56;100520.59;;;5.26;50.14
54329;BME280;40710;51.120;13.136;2023-01-28T11:31:22;100526.22;;;4.89;50.69
54329;BME280;40710;51.120;13.136;2023-01-28T11:33:57;100514.50;;;5.24;49.81
54329;BME280;40710;51.120;13.136;2023-01-28T11:36:31;100520.78;;;5.09;50.02
54329;BME280;40710;51.120;13.136;2023-01-28T11:39:20;100520.84;;;5.04;50.25
54329;BME280;40710;51.120;13.136;2023-01-28T11:41:46;100515.13;;;5.43;48.95
54329;BME280;40710;51.120;13.136;2023-01-28T11:44:14;100510.22;;;5.20;48.74
54329;BME280;40710;51.120;13.136;2023-01-28T11:47:09;100508.25;;;5.37;49.16
54329;BME280;40710;51.120;13.136;2023-01-28T11:50:01;100513.94;;;5.02;49.03
54329;BME280;40710;51.120;13.136;2023-01-28T11:53:05;100515.56;;;5.12;49.13
54329;BME280;40710;51.120;13.136;2023-01-28T12:00:50;100505.63;;;4.66;47.96
54329;BME280;40710;51.120;13.136;2023-01-28T12:03:50;100489.50;;;5.12;46.92
54329;BME280;40710;51.120;13.136;2023-01-28T12:20:44;100490.88;;;5.38;46.04
54329;BME280;40710;51.120;13.136;2023-01-28T12:23:28;100484.31;;;5.71;46.04
54329;BME280;40710;51.120;13.136;2023-01-28T12:26:15;100486.22;;;5.60;46.57
54329;BME280;40710;51.120;13.136;2023-01-28T12:34:01;100482.88;;;5.50;46.91
54329;BME280;40710;51.120;13.136;2023-01-28T12:39:34;100468.03;;;5.55;46.53
54329;BME280;40710;51.120;13.136;2023-01-28T12:42:26;100473.59;;;5.30;47.58
54329;BME280;40710;51.120;13.136;2023-01-28T12:45:01;100468.81;;;5.00;47.21
54329;BME280;40710;51.120;13.136;2023-01-28T12:47:35;100483.41;;;4.31;48.69
54329;BME280;40710;51.120;13.136;2023-01-28T12:50:17;100483.09;;;4.63;48.16
54329;BME280;40710;51.120;13.136;2023-01-28T12:55:52;100484.78;;;4.69;48.11
54329;BME280;40710;51.120;13.136;2023-01-28T12:58:23;100477.09;;;4.55;48.77
54329;BME280;40710;51.120;13.136;2023-01-28T13:01:03;100488.31;;;4.65;48.31
54329;BME280;40710;51.120;13.136;2023-01-28T13:03:54;100486.47;;;4.71;47.88
54329;BME280;40710;51.120;13.136;2023-01-28T13:06:32;100476.69;;;4.92;47.63
54329;BME280;40710;51.120;13.136;2023-01-28T13:09:14;100484.31;;;5.07;48.02
54329;BME280;40710;51.120;13.136;2023-01-28T13:11:40;100490.72;;;5.48;47.29
54329;BME280;40710;51.120;13.136;2023-01-28T13:14:06;100481.41;;;5.32;47.41
54329;BME280;40710;51.120;13.136;2023-01-28T13:16:32;100489.59;;;5.01;47.95
54329;BME280;40710;51.120;13.136;2023-01-28T13:21:43;100476.94;;;4.70;47.71
54329;BME280;40710;51.120;13.136;2023-01-28T13:26:40;100485.16;;;5.11;46.66
54329;BME280;40710;51.120;13.136;2023-01-28T13:31:50;100484.31;;;5.09;46.97
54329;BME280;40710;51.120;13.136;2023-01-28T13:37:06;100494.78;;;5.04;46.81
54329;BME280;40710;51.120;13.136;2023-01-28T13:39:37;100499.28;;;4.93;46.86
54329;BME280;40710;51.120;13.136;2023-01-28T13:42:25;100489.44;;;5.14;46.85
54329;BME280;40710;51.120;13.136;2023-01-28T13:44:50;100500.28;;;4.78;47.36
54329;BME280;40710;51.120;13.136;2023-01-28T13:47:25;100486.91;;;5.09;46.69
54329;BME280;40710;51.120;13.136;2023-01-28T13:50:01;100502.97;;;4.72;47.11
54329;BME280;40710;51.120;13.136;2023-01-28T13:52:35;100508.88;;;4.89;47.34
54329;BME280;40710;51.120;13.136;2023-01-28T13:57:59;100508.91;;;4.85;45.92
54329;BME280;40710;51.120;13.136;2023-01-28T14:00:38;100512.81;;;4.42;46.43
54329;BME280;40710;51.120;13.136;2023-01-28T14:17:44;100514.28;;;4.69;45.68
54329;BME280;40710;51.120;13.136;2023-01-28T14:20:25;100518.03;;;5.21;44.97
54329;BME280;40710;51.120;13.136;2023-01-28T14:22:56;100517.22;;;5.18;44.95
54329;BME280;40710;51.120;13.136;2023-01-28T14:26:13;100523.59;;;4.92;45.93
54329;BME280;40710;51.120;13.136;2023-01-28T14:29:01;100518.16;;;5.10;45.49
54329;BME280;40710;51.120;13.136;2023-01-28T14:31:35;100506.69;;;5.22;44.88
54329;BME280;40710;51.120;13.136;2023-01-28T14:36:52;100503.34;;;5.16;45.70